Time;durP1;ratioP1;P1;durP2;ratioP2;P2;SDS_P1;SDS_P2;PMS_P1;PMS_P2;Temp;Humidity;BMP_temperature;BMP_pressure;BME280_temperature;BME280_humidity;BME280_pressure;Samples;Min_cycle;Max_cycle;Signal;HPM_P1;HPM_P2
2023/04/29 00:01:58;;;;;;;39.43;18.67;;;8.60;99.90;;;;;;5025332;28;20091;-72
2023/04/29 00:04:25;;;;;;;32.65;20.38;;;8.60;99.90;;;;;;5041248;28;20077;-72
2023/04/29 00:06:50;;;;;;;37.28;20.35;;;8.60;99.90;;;;;;5040497;28;20078;-72
2023/04/29 00:09:16;;;;;;;34.10;21.00;;;8.60;99.90;;;;;;5029086;28;20615;-72
2023/04/29 00:11:42;;;;;;;42.03;18.73;;;8.60;99.90;;;;;;5031007;28;20095;-72
2023/04/29 00:14:08;;;;;;;32.90;19.23;;;8.60;99.90;;;;;;5030611;28;20129;-72
2023/04/29 00:16:33;;;;;;;32.97;19.70;;;8.60;99.90;;;;;;5023530;28;20106;-72
2023/04/29 00:18:59;;;;;;;34.17;19.67;;;8.50;99.90;;;;;;5025142;28;20525;-73
2023/04/29 00:21:26;;;;;;;33.97;19.80;;;8.50;99.90;;;;;;5047798;28;20029;-72
2023/04/29 00:23:52;;;;;;;28.77;19.00;;;8.50;99.90;;;;;;5039985;28;20049;-72
2023/04/29 00:26:18;;;;;;;31.75;19.10;;;8.50;99.90;;;;;;5029552;28;20095;-72
2023/04/29 00:28:44;;;;;;;34.67;19.73;;;8.50;99.90;;;;;;5039944;28;20867;-72
2023/04/29 00:31:09;;;;;;;32.00;19.27;;;8.50;99.90;;;;;;5042298;28;20068;-72
2023/04/29 00:33:35;;;;;;;33.27;19.03;;;8.50;99.90;;;;;;5027386;28;20037;-72
2023/04/29 00:36:01;;;;;;;32.83;19.10;;;8.50;99.90;;;;;;5044074;28;20549;-72
2023/04/29 00:38:27;;;;;;;41.38;20.00;;;8.50;99.90;;;;;;5039482;28;20037;-72
2023/04/29 00:40:54;;;;;;;38.60;19.70;;;8.50;99.90;;;;;;5021635;28;20055;-72
2023/04/29 00:43:20;;;;;;;34.30;19.77;;;8.50;99.90;;;;;;5046293;28;20393;-72
2023/04/29 00:45:46;;;;;;;33.83;19.93;;;8.50;99.90;;;;;;5026319;28;20106;-72
2023/04/29 00:48:14;;;;;;;31.92;19.23;;;8.50;99.90;;;;;;5047104;28;20071;-72
2023/04/29 00:50:41;;;;;;;34.08;19.27;;;8.50;99.90;;;;;;5040087;28;20072;-72
2023/04/29 00:53:07;;;;;;;37.25;19.38;;;8.50;99.90;;;;;;5025618;28;20045;-72
2023/04/29 00:55:35;;;;;;;33.97;19.67;;;8.50;99.90;;;;;;5042387;28;20045;-72
2023/04/29 00:58:02;;;;;;;30.35;18.52;;;8.50;99.90;;;;;;5025838;28;20072;-72
2023/04/29 01:00:29;;;;;;;29.73;18.60;;;8.50;99.90;;;;;;5046926;28;20045;-72
2023/04/29 01:02:56;;;;;;;31.13;18.58;;;8.50;99.90;;;;;;5045153;28;20039;-72
2023/04/29 01:05:23;;;;;;;30.88;16.63;;;8.40;99.90;;;;;;5026313;28;20041;-72
2023/04/29 01:07:58;;;;;;;31.48;18.83;;;8.40;99.90;;;;;;5027300;28;20124;-72
2023/04/29 01:10:28;;;;;;;33.95;17.67;;;8.40;99.90;;;;;;5030279;28;20045;-72
2023/04/29 01:13:15;;;;;;;30.77;16.80;;;8.40;99.90;;;;;;5038946;28;20052;-72
2023/04/29 01:15:47;;;;;;;33.95;18.48;;;8.40;99.90;;;;;;5026320;28;20037;-72
2023/04/29 01:19:05;;;;;;;38.35;19.70;;;8.40;99.90;;;;;;5042091;28;20049;-72
2023/04/29 01:21:30;;;;;;;32.63;17.48;;;8.40;99.90;;;;;;5023165;28;20175;-72
2023/04/29 01:23:57;;;;;;;30.67;17.80;;;8.30;99.90;;;;;;5044644;28;20124;-72
2023/04/29 01:26:23;;;;;;;36.15;18.58;;;8.30;99.90;;;;;;5045080;28;20500;-72
2023/04/29 01:28:49;;;;;;;39.88;19.33;;;8.30;99.90;;;;;;5047200;28;20102;-72
2023/04/29 01:31:21;;;;;;;35.57;18.03;;;8.30;99.90;;;;;;5028230;28;20124;-72
2023/04/29 01:34:23;;;;;;;35.75;18.75;;;8.30;99.90;;;;;;5038988;28;20051;-72
2023/04/29 01:37:09;;;;;;;35.05;18.80;;;8.20;99.90;;;;;;5043769;28;20045;-72
2023/04/29 01:39:59;;;;;;;33.42;18.05;;;8.30;99.90;;;;;;5034031;28;20037;-72
2023/04/29 01:42:51;;;;;;;42.67;20.10;;;8.20;99.90;;;;;;5030577;28;20045;-72
2023/04/29 01:45:18;;;;;;;35.72;19.17;;;8.20;99.90;;;;;;5047090;28;20057;-72
2023/04/29 01:47:48;;;;;;;35.67;19.25;;;8.20;99.90;;;;;;5049474;28;20052;-72
2023/04/29 01:50:13;;;;;;;37.08;20.17;;;8.20;99.90;;;;;;5026909;28;20472;-72
2023/04/29 01:52:39;;;;;;;32.00;18.63;;;8.20;99.90;;;;;;5028743;28;20041;-72
2023/04/29 01:55:05;;;;;;;38.20;19.10;;;8.20;99.90;;;;;;5048845;28;20516;-72
2023/04/29 01:57:31;;;;;;;40.53;18.75;;;8.10;99.90;;;;;;5028199;28;20120;-72
2023/04/29 01:59:57;;;;;;;37.30;20.02;;;8.10;99.90;;;;;;5033645;28;20382;-72
2023/04/29 02:02:24;;;;;;;31.30;19.43;;;8.10;99.90;;;;;;5030033;28;20060;-72
2023/04/29 02:04:50;;;;;;;34.45;20.67;;;8.00;99.90;;;;;;5018802;28;20061;-72
2023/04/29 02:07:16;;;;;;;37.30;21.13;;;8.00;99.90;;;;;;5042424;28;20044;-72
2023/04/29 02:09:42;;;;;;;42.30;22.35;;;8.00;99.90;;;;;;5027146;28;20052;-72
2023/04/29 02:12:07;;;;;;;40.47;22.90;;;8.00;99.90;;;;;;5049749;28;20040;-72
2023/04/29 02:14:33;;;;;;;41.27;22.70;;;8.00;99.90;;;;;;5027123;28;20049;-72
2023/04/29 02:16:59;;;;;;;39.53;23.00;;;8.00;99.90;;;;;;5026478;28;20122;-71
2023/04/29 02:19:25;;;;;;;44.17;23.43;;;8.00;99.90;;;;;;5033189;28;20045;-72
2023/04/29 02:21:51;;;;;;;43.60;23.17;;;8.00;99.90;;;;;;5028198;28;20041;-72
2023/04/29 02:24:16;;;;;;;38.17;23.40;;;8.00;99.90;;;;;;5033399;28;20167;-72
2023/04/29 02:26:42;;;;;;;45.77;23.53;;;8.00;99.90;;;;;;5031801;28;20401;-72
2023/04/29 02:29:08;;;;;;;44.77;24.47;;;8.00;99.90;;;;;;5033664;28;20078;-72
2023/04/29 02:31:34;;;;;;;44.10;25.67;;;8.00;99.90;;;;;;5049714;28;20045;-72
2023/04/29 02:33:59;;;;;;;44.13;24.67;;;8.00;99.90;;;;;;5031068;28;20043;-72
2023/04/29 02:36:25;;;;;;;41.50;23.57;;;8.00;99.90;;;;;;5031847;28;20662;-72
2023/04/29 02:38:54;;;;;;;41.33;25.03;;;8.00;99.90;;;;;;5032712;28;20652;-72
2023/04/29 02:41:20;;;;;;;44.05;25.20;;;8.00;99.90;;;;;;5025208;28;20063;-72
2023/04/29 02:43:47;;;;;;;39.13;23.15;;;8.00;99.90;;;;;;5031894;28;20044;-72
2023/04/29 02:46:13;;;;;;;43.47;22.98;;;8.00;99.90;;;;;;5046870;28;20073;-72
2023/04/29 02:48:39;;;;;;;40.00;22.60;;;8.00;99.90;;;;;;5048301;28;20464;-72
2023/04/29 02:51:05;;;;;;;36.13;21.13;;;8.00;99.90;;;;;;5032852;28;20408;-72
2023/04/29 02:53:31;;;;;;;39.33;22.13;;;8.00;99.90;;;;;;5031692;28;20045;-72
2023/04/29 02:55:57;;;;;;;37.77;21.27;;;8.10;99.90;;;;;;5049599;28;20321;-72
2023/04/29 02:58:23;;;;;;;38.13;22.07;;;8.10;99.90;;;;;;5028232;28;20287;-72
2023/04/29 03:00:48;;;;;;;36.67;20.80;;;8.10;99.90;;;;;;5019225;28;20045;-72
2023/04/29 03:03:14;;;;;;;37.33;19.60;;;8.10;99.90;;;;;;5027713;28;20095;-72
2023/04/29 03:05:40;;;;;;;37.63;20.57;;;8.10;99.90;;;;;;5032080;28;20043;-72
2023/04/29 03:08:06;;;;;;;35.60;19.43;;;8.10;99.90;;;;;;5048846;28;20717;-72
2023/04/29 03:10:32;;;;;;;39.97;19.23;;;8.10;99.90;;;;;;5028636;28;20128;-72
2023/04/29 03:12:57;;;;;;;30.07;18.70;;;8.10;99.90;;;;;;5047960;28;20064;-72
2023/04/29 03:15:23;;;;;;;36.67;20.17;;;8.10;99.90;;;;;;5032154;28;20480;-72
2023/04/29 03:17:49;;;;;;;35.87;18.73;;;8.10;99.90;;;;;;5048600;28;20072;-72
2023/04/29 03:20:15;;;;;;;34.23;19.03;;;8.10;99.90;;;;;;5028987;28;20132;-72
2023/04/29 03:22:40;;;;;;;34.97;18.63;;;8.10;99.90;;;;;;5038921;28;20041;-72
2023/04/29 03:25:06;;;;;;;33.10;18.07;;;8.00;99.90;;;;;;5044791;28;20037;-72
2023/04/29 03:27:32;;;;;;;35.83;18.13;;;8.00;99.90;;;;;;5020411;28;20049;-72
2023/04/29 03:29:58;;;;;;;34.83;17.97;;;8.00;99.90;;;;;;5032307;28;20037;-72
2023/04/29 03:32:24;;;;;;;36.53;18.98;;;8.00;99.90;;;;;;5031862;28;20381;-72
2023/04/29 03:34:50;;;;;;;32.07;18.53;;;8.00;99.90;;;;;;5039611;28;20052;-72
2023/04/29 03:37:16;;;;;;;34.60;18.93;;;8.00;99.90;;;;;;5017603;28;20044;-72
2023/04/29 03:39:41;;;;;;;33.30;17.60;;;8.00;99.90;;;;;;5031622;28;20448;-72
2023/04/29 03:42:07;;;;;;;34.83;18.80;;;8.00;99.90;;;;;;5048021;28;20118;-71
2023/04/29 03:44:33;;;;;;;36.60;19.13;;;8.00;99.90;;;;;;5024282;28;20071;-72
2023/04/29 03:46:59;;;;;;;39.50;19.23;;;8.00;99.90;;;;;;5042223;28;20051;-72
2023/04/29 03:49:25;;;;;;;37.80;18.70;;;8.10;99.90;;;;;;5045924;28;20072;-72
2023/04/29 03:51:50;;;;;;;37.97;18.90;;;8.10;99.90;;;;;;5048308;28;20366;-72
2023/04/29 03:54:16;;;;;;;36.43;19.30;;;8.10;99.90;;;;;;5030901;28;20098;-72
2023/04/29 03:56:42;;;;;;;42.10;20.53;;;8.10;99.90;;;;;;5045337;28;20048;-72
2023/04/29 03:59:08;;;;;;;37.13;19.93;;;8.10;99.90;;;;;;5042949;28;20068;-72
2023/04/29 04:01:34;;;;;;;33.33;17.77;;;8.10;99.90;;;;;;5021094;28;20052;-72
2023/04/29 04:04:00;;;;;;;38.83;19.47;;;8.10;99.90;;;;;;5020859;28;20047;-72
2023/04/29 04:06:25;;;;;;;37.17;18.52;;;8.10;99.90;;;;;;5031199;28;20128;-72
2023/04/29 04:08:51;;;;;;;36.50;17.83;;;8.10;99.90;;;;;;5025994;28;20129;-72
2023/04/29 04:11:17;;;;;;;32.50;16.40;;;8.10;99.90;;;;;;5043806;28;20160;-72
2023/04/29 04:13:43;;;;;;;32.70;16.23;;;8.10;99.90;;;;;;5029229;28;20037;-72
2023/04/29 04:16:12;;;;;;;32.55;13.82;;;8.10;99.90;;;;;;5046993;28;20045;-72
2023/04/29 04:18:38;;;;;;;31.30;13.68;;;8.10;99.90;;;;;;5027671;28;20374;-72
2023/04/29 04:21:11;;;;;;;30.60;14.10;;;8.10;99.90;;;;;;5021481;28;20438;-72
2023/04/29 04:23:40;;;;;;;21.38;11.75;;;8.10;99.90;;;;;;5046490;28;20045;-72
2023/04/29 04:26:07;;;;;;;22.60;12.02;;;8.10;99.90;;;;;;5047154;28;20079;-72
2023/04/29 04:28:32;;;;;;;19.73;12.00;;;8.20;99.90;;;;;;5027240;28;20073;-72
2023/04/29 04:30:58;;;;;;;22.53;12.13;;;8.20;99.90;;;;;;5028970;28;20544;-72
2023/04/29 04:33:26;;;;;;;25.03;10.90;;;8.20;99.90;;;;;;5026873;28;20067;-72
2023/04/29 04:35:51;;;;;;;23.50;11.55;;;8.10;99.90;;;;;;5049156;28;20041;-72
2023/04/29 04:38:17;;;;;;;21.77;11.13;;;8.10;99.90;;;;;;5045762;28;20082;-72
2023/04/29 04:40:43;;;;;;;21.53;10.57;;;8.10;99.90;;;;;;5044446;28;20128;-73
2023/04/29 04:43:09;;;;;;;19.95;10.95;;;8.10;99.90;;;;;;5031125;28;20041;-73
2023/04/29 04:45:36;;;;;;;24.90;11.07;;;8.10;99.90;;;;;;5023345;28;20081;-72
2023/04/29 04:48:02;;;;;;;20.00;11.63;;;8.20;99.90;;;;;;5030283;28;20400;-73
2023/04/29 04:50:28;;;;;;;18.98;11.77;;;8.20;99.90;;;;;;5039305;28;20037;-73
2023/04/29 04:52:57;;;;;;;18.75;10.80;;;8.20;99.90;;;;;;5041265;28;20132;-73
2023/04/29 04:55:23;;;;;;;21.95;9.65;;;8.20;99.90;;;;;;5044264;28;20041;-71
2023/04/29 04:57:49;;;;;;;19.65;10.63;;;8.20;99.90;;;;;;5027429;28;20120;-70
2023/04/29 05:00:15;;;;;;;21.38;9.68;;;8.20;99.90;;;;;;5022488;28;20045;-70
2023/04/29 05:02:41;;;;;;;22.13;10.17;;;8.10;99.90;;;;;;5030469;28;20064;-70
2023/04/29 05:05:07;;;;;;;19.20;9.13;;;8.10;99.90;;;;;;5028550;28;20379;-70
2023/04/29 05:07:35;;;;;;;20.43;10.47;;;8.00;99.90;;;;;;5030685;28;20033;-70
2023/04/29 05:10:02;;;;;;;19.00;9.63;;;8.00;99.90;;;;;;5029321;28;20288;-70
2023/04/29 05:12:29;;;;;;;22.02;9.27;;;7.90;99.90;;;;;;5031788;28;20509;-70
2023/04/29 05:14:56;;;;;;;16.98;8.90;;;7.90;99.90;;;;;;5051064;28;20489;-70
2023/04/29 05:17:22;;;;;;;20.50;9.50;;;7.80;99.90;;;;;;5034591;28;20064;-70
2023/04/29 05:19:48;;;;;;;17.77;9.33;;;7.80;99.90;;;;;;5034236;28;20107;-70
2023/04/29 05:22:13;;;;;;;17.43;7.60;;;7.80;99.90;;;;;;5034347;28;20049;-70
2023/04/29 05:24:39;;;;;;;19.40;8.93;;;7.80;99.90;;;;;;5027476;28;20553;-70
2023/04/29 05:27:05;;;;;;;17.40;8.67;;;7.80;99.90;;;;;;5034584;28;20037;-70
2023/04/29 05:29:31;;;;;;;19.77;8.70;;;7.80;99.90;;;;;;5050540;28;20041;-70
2023/04/29 05:31:57;;;;;;;21.50;9.57;;;7.90;99.90;;;;;;5028149;28;20120;-70
2023/04/29 05:34:23;;;;;;;19.55;8.82;;;7.90;99.90;;;;;;5040753;28;20287;-70
2023/04/29 05:36:48;;;;;;;15.67;8.80;;;7.90;99.90;;;;;;5046862;28;20037;-70
2023/04/29 05:39:14;;;;;;;17.87;8.43;;;7.90;99.90;;;;;;5039857;28;20492;-70
2023/04/29 05:41:40;;;;;;;16.37;8.13;;;8.00;99.90;;;;;;5027626;28;20049;-70
2023/04/29 05:44:05;;;;;;;18.03;8.43;;;8.00;99.90;;;;;;5042214;28;20743;-70
2023/04/29 05:46:31;;;;;;;21.03;9.10;;;8.10;99.90;;;;;;5026773;28;20038;-70
2023/04/29 05:48:57;;;;;;;18.63;9.07;;;8.10;99.90;;;;;;5029264;28;20122;-70
2023/04/29 05:51:22;;;;;;;17.77;8.53;;;8.20;99.90;;;;;;5025647;28;20501;-70
2023/04/29 05:53:48;;;;;;;16.50;8.07;;;8.20;99.90;;;;;;5025410;28;20051;-70
2023/04/29 05:56:15;;;;;;;17.50;8.53;;;8.20;99.90;;;;;;5029782;28;20047;-70
2023/04/29 05:58:41;;;;;;;16.02;9.05;;;8.30;99.90;;;;;;5033226;28;20059;-71
2023/04/29 06:01:06;;;;;;;17.37;8.50;;;8.40;99.90;;;;;;5047363;28;20553;-70
2023/04/29 06:03:33;;;;;;;16.33;8.07;;;8.40;99.90;;;;;;5048080;28;20455;-70
2023/04/29 06:05:59;;;;;;;19.83;8.60;;;8.50;99.90;;;;;;5015814;28;20053;-70
2023/04/29 06:08:25;;;;;;;15.27;7.65;;;8.60;99.90;;;;;;5032721;28;20045;-70
2023/04/29 06:10:51;;;;;;;14.15;7.63;;;8.60;99.90;;;;;;5049609;28;20076;-70
2023/04/29 06:13:17;;;;;;;20.53;7.57;;;8.70;99.90;;;;;;5031325;28;20071;-70
2023/04/29 06:15:43;;;;;;;17.73;7.43;;;8.80;99.90;;;;;;5048141;28;20652;-70
2023/04/29 06:18:09;;;;;;;15.35;8.10;;;8.80;99.90;;;;;;5033174;28;20037;-70
2023/04/29 06:20:34;;;;;;;15.80;7.07;;;8.80;99.90;;;;;;5049649;28;20051;-70
2023/04/29 06:23:00;;;;;;;18.77;7.10;;;8.90;99.90;;;;;;5031586;28;20075;-70
2023/04/29 06:25:26;;;;;;;16.60;6.90;;;9.00;99.90;;;;;;5048675;28;20362;-70
2023/04/29 06:27:52;;;;;;;14.07;6.73;;;9.10;99.90;;;;;;5025585;28;20090;-70
2023/04/29 06:30:18;;;;;;;16.60;7.00;;;9.10;99.90;;;;;;5029054;28;20179;-70
2023/04/29 06:32:43;;;;;;;15.23;6.97;;;9.20;99.90;;;;;;5049291;28;20131;-70
2023/04/29 06:35:09;;;;;;;19.83;6.87;;;9.30;99.90;;;;;;5032142;28;20068;-70
2023/04/29 06:37:35;;;;;;;18.50;7.37;;;9.30;99.90;;;;;;5026365;28;20115;-72
2023/04/29 06:40:02;;;;;;;13.07;6.78;;;9.40;99.90;;;;;;5028621;28;20077;-72
2023/04/29 06:42:28;;;;;;;12.33;6.57;;;9.50;99.90;;;;;;5033148;28;20463;-72
2023/04/29 06:44:53;;;;;;;14.50;6.67;;;9.60;99.90;;;;;;5034907;28;20100;-73
2023/04/29 06:47:20;;;;;;;17.67;6.77;;;9.60;99.90;;;;;;5046753;28;20041;-72
2023/04/29 06:49:46;;;;;;;12.38;6.38;;;9.60;99.90;;;;;;5045021;28;20117;-72
2023/04/29 06:52:12;;;;;;;19.30;6.27;;;9.70;99.90;;;;;;5033573;28;20109;-72
2023/04/29 06:54:38;;;;;;;11.93;5.72;;;9.70;99.90;;;;;;5033758;28;20103;-72
2023/04/29 06:57:03;;;;;;;16.00;6.53;;;9.80;99.90;;;;;;5051587;28;20408;-72
2023/04/29 06:59:29;;;;;;;12.47;5.37;;;9.80;99.90;;;;;;5063938;28;20076;-72
2023/04/29 07:01:55;;;;;;;11.87;5.47;;;9.80;99.90;;;;;;5028238;28;20045;-72
2023/04/29 07:04:20;;;;;;;10.23;5.37;;;9.90;99.90;;;;;;5046773;28;20052;-73
2023/04/29 07:06:46;;;;;;;12.80;6.17;;;9.90;99.90;;;;;;5037461;28;20040;-72
2023/04/29 07:09:13;;;;;;;9.60;5.80;;;10.00;99.90;;;;;;5044435;28;20049;-72
2023/04/29 07:11:39;;;;;;;10.98;5.38;;;10.10;99.90;;;;;;5028867;28;20091;-72
2023/04/29 07:14:06;;;;;;;13.55;5.75;;;10.10;99.90;;;;;;5028449;28;20122;-72
2023/04/29 07:16:32;;;;;;;10.80;5.70;;;10.20;99.90;;;;;;5033538;28;20670;-72
2023/04/29 07:18:58;;;;;;;15.05;5.55;;;10.20;99.90;;;;;;5026973;28;20049;-72
2023/04/29 07:21:25;;;;;;;15.02;6.18;;;10.30;99.90;;;;;;5051598;28;20134;-73
2023/04/29 07:23:51;;;;;;;16.15;6.68;;;10.30;99.90;;;;;;5043751;28;20041;-72
2023/04/29 07:26:17;;;;;;;11.70;6.03;;;10.30;99.90;;;;;;5051183;28;20045;-72
2023/04/29 07:28:43;;;;;;;13.65;5.85;;;10.40;99.90;;;;;;5034226;28;20082;-71
2023/04/29 07:31:11;;;;;;;11.77;5.57;;;10.40;99.90;;;;;;5051469;28;20041;-72
2023/04/29 07:33:37;;;;;;;12.98;6.18;;;10.40;99.90;;;;;;5032735;28;20052;-72
2023/04/29 07:36:03;;;;;;;12.57;6.03;;;10.40;99.90;;;;;;5046470;28;20053;-72
2023/04/29 07:38:29;;;;;;;15.35;6.00;;;10.50;99.90;;;;;;5026439;28;20107;-72
2023/04/29 07:40:55;;;;;;;11.02;4.90;;;10.60;99.90;;;;;;5034282;28;20055;-72
2023/04/29 07:43:21;;;;;;;12.67;5.87;;;10.60;99.90;;;;;;5047391;28;20136;-73
2023/04/29 07:45:47;;;;;;;10.93;5.40;;;10.70;99.90;;;;;;5048798;28;20099;-73
2023/04/29 07:48:13;;;;;;;13.20;5.45;;;10.70;99.90;;;;;;5017238;28;20037;-72
2023/04/29 07:50:38;;;;;;;10.67;4.50;;;10.80;99.90;;;;;;5050530;28;20116;-72
2023/04/29 07:53:05;;;;;;;8.90;4.63;;;10.80;99.90;;;;;;5047663;28;20512;-72
2023/04/29 07:55:31;;;;;;;8.67;5.00;;;10.90;99.90;;;;;;5040768;28;20040;-72
2023/04/29 07:57:57;;;;;;;9.63;4.33;;;10.90;99.90;;;;;;5026626;28;20295;-72
2023/04/29 08:00:24;;;;;;;8.93;4.72;;;10.90;99.90;;;;;;5047364;28;20747;-72
2023/04/29 08:02:54;;;;;;;10.15;5.10;;;10.90;99.90;;;;;;5029093;28;20037;-72
2023/04/29 08:05:21;;;;;;;9.68;4.75;;;11.00;99.90;;;;;;5023242;28;20049;-72
2023/04/29 08:07:50;;;;;;;8.95;4.35;;;11.10;99.90;;;;;;5044963;28;20440;-72
2023/04/29 08:10:16;;;;;;;12.10;4.78;;;11.10;99.90;;;;;;5031605;28;20045;-71
2023/04/29 08:12:46;;;;;;;9.10;4.90;;;11.20;99.90;;;;;;5040915;28;20162;-71
2023/04/29 08:15:11;;;;;;;12.13;5.17;;;11.30;99.90;;;;;;5030176;28;20369;-71
2023/04/29 08:17:37;;;;;;;16.17;5.37;;;11.40;99.90;;;;;;5027777;28;20751;-71
2023/04/29 08:20:03;;;;;;;7.67;4.80;;;11.40;99.90;;;;;;5040763;28;20041;-71
2023/04/29 08:22:29;;;;;;;8.43;4.70;;;11.50;99.90;;;;;;5048025;28;20040;-71
2023/04/29 08:24:55;;;;;;;9.17;5.60;;;11.60;99.90;;;;;;5039316;28;20798;-71
2023/04/29 08:27:21;;;;;;;12.00;5.83;;;11.80;99.90;;;;;;5021942;28;20040;-71
2023/04/29 08:29:46;;;;;;;10.13;5.10;;;11.90;99.90;;;;;;5025222;28;20663;-71
2023/04/29 08:32:12;;;;;;;9.00;5.37;;;12.00;99.90;;;;;;5025216;28;21516;-71
2023/04/29 08:34:38;;;;;;;11.10;6.00;;;12.00;99.90;;;;;;5039837;28;20102;-71
2023/04/29 08:37:04;;;;;;;12.90;6.07;;;12.10;99.90;;;;;;5038742;28;20036;-71
2023/04/29 08:39:30;;;;;;;11.10;5.77;;;12.10;99.90;;;;;;5035005;28;20038;-71
2023/04/29 08:41:56;;;;;;;11.30;5.80;;;12.20;99.90;;;;;;5019169;28;20132;-71
2023/04/29 08:44:24;;;;;;;14.83;5.40;;;12.20;99.90;;;;;;5026270;28;20997;-71
2023/04/29 08:46:50;;;;;;;9.40;5.60;;;12.20;99.90;;;;;;5023597;28;20296;-71
2023/04/29 08:49:15;;;;;;;11.00;5.43;;;12.30;99.90;;;;;;5041146;28;20283;-71
2023/04/29 08:51:41;;;;;;;10.20;5.93;;;12.40;99.90;;;;;;5021923;28;20703;-71
2023/04/29 08:54:07;;;;;;;8.63;5.07;;;12.40;99.90;;;;;;5023899;28;20127;-71
2023/04/29 08:56:33;;;;;;;11.60;6.47;;;12.50;99.90;;;;;;5046176;28;20037;-71
2023/04/29 08:59:01;;;;;;;10.43;6.30;;;12.60;99.90;;;;;;5041679;28;20128;-71
2023/04/29 09:01:28;;;;;;;10.27;5.90;;;12.70;99.90;;;;;;5040051;28;20302;-71
2023/04/29 09:04:09;;;;;;;15.77;6.33;;;12.80;99.90;;;;;;5040114;28;20363;-71
2023/04/29 09:06:35;;;;;;;9.63;6.03;;;12.80;99.90;;;;;;5033588;28;20292;-71
2023/04/29 09:09:02;;;;;;;10.07;6.67;;;13.00;99.90;;;;;;5025057;28;20290;-71
2023/04/29 09:11:29;;;;;;;13.23;6.00;;;13.00;99.90;;;;;;5041845;28;20087;-71
2023/04/29 09:14:03;;;;;;;12.80;6.43;;;13.00;99.90;;;;;;5023737;28;20291;-71
2023/04/29 09:16:29;;;;;;;11.37;6.83;;;13.00;99.90;;;;;;5047489;28;20982;-71
2023/04/29 09:18:58;;;;;;;11.53;6.27;;;13.00;99.90;;;;;;5021874;28;20318;-71
2023/04/29 09:21:32;;;;;;;10.50;6.73;;;13.00;99.90;;;;;;5027941;28;20283;-71
2023/04/29 09:24:02;;;;;;;12.83;6.87;;;13.10;99.90;;;;;;5042665;28;20288;-71
2023/04/29 09:26:44;;;;;;;10.30;6.63;;;13.20;99.90;;;;;;5019617;28;20284;-71
2023/04/29 09:29:17;;;;;;;10.70;6.30;;;13.20;99.90;;;;;;5027482;28;20275;-71
2023/04/29 09:31:44;;;;;;;10.07;5.93;;;13.40;99.90;;;;;;5029574;28;20326;-71
2023/04/29 09:34:10;;;;;;;12.93;7.00;;;13.50;99.90;;;;;;5027394;28;20288;-72
2023/04/29 09:36:46;;;;;;;10.07;5.77;;;13.50;99.90;;;;;;5024828;28;20294;-72
2023/04/29 09:39:14;;;;;;;12.53;5.70;;;13.50;99.90;;;;;;5021225;28;20292;-72
2023/04/29 09:42:07;;;;;;;9.80;5.57;;;13.50;99.90;;;;;;5041060;28;20310;-72
2023/04/29 09:44:34;;;;;;;10.50;5.60;;;13.50;99.90;;;;;;5036985;28;20284;-72
2023/04/29 09:47:04;;;;;;;10.67;6.03;;;13.60;99.90;;;;;;5019970;28;20272;-72
2023/04/29 09:49:39;;;;;;;11.80;5.27;;;13.70;99.90;;;;;;5021906;28;20378;-72
2023/04/29 09:52:07;;;;;;;11.70;5.68;;;13.70;99.90;;;;;;5033975;28;20303;-72
2023/04/29 09:54:37;;;;;;;8.17;4.77;;;13.70;99.90;;;;;;5045196;28;20033;-72
2023/04/29 09:57:07;;;;;;;6.47;3.40;;;13.80;99.90;;;;;;5044192;28;20317;-71
2023/04/29 09:59:35;;;;;;;10.03;4.37;;;13.70;85.80;;;;;;5043303;28;20362;-71
2023/04/29 10:02:08;;;;;;;7.23;3.90;;;13.80;84.10;;;;;;5019330;28;20307;-71
2023/04/29 10:04:35;;;;;;;6.97;4.20;;;13.90;81.40;;;;;;5024149;28;20288;-71
2023/04/29 10:07:01;;;;;;;5.93;3.10;;;14.10;74.20;;;;;;5041979;28;20829;-71
2023/04/29 10:09:28;;;;;;;8.20;3.20;;;14.10;76.00;;;;;;5044869;28;20422;-71
2023/04/29 10:11:54;;;;;;;6.17;3.03;;;14.30;69.00;;;;;;5032749;28;20041;-71
2023/04/29 10:14:25;;;;;;;5.97;3.50;;;14.40;73.70;;;;;;5026805;28;20855;-71
2023/04/29 10:17:09;;;;;;;6.17;3.27;;;14.50;73.10;;;;;;5030062;28;20028;-71
2023/04/29 10:19:53;;;;;;;5.23;2.80;;;14.50;74.00;;;;;;5033433;28;20279;-71
2023/04/29 10:22:29;;;;;;;5.43;2.50;;;14.50;67.30;;;;;;5021009;28;20290;-71
2023/04/29 10:24:58;;;;;;;8.90;2.83;;;14.60;67.80;;;;;;5044985;28;20311;-71
2023/04/29 10:27:24;;;;;;;4.90;2.33;;;14.70;68.90;;;;;;5045482;28;20326;-71
2023/04/29 10:29:51;;;;;;;5.43;2.30;;;14.70;66.00;;;;;;5025710;28;20311;-71
2023/04/29 10:32:20;;;;;;;5.83;2.03;;;14.80;63.00;;;;;;5032662;28;20300;-71
2023/04/29 10:34:48;;;;;;;7.00;2.83;;;14.70;62.80;;;;;;5033067;28;20285;-71
2023/04/29 10:37:15;;;;;;;3.77;1.90;;;14.60;56.50;;;;;;5033152;28;20558;-71
2023/04/29 10:40:12;;;;;;;4.23;1.90;;;14.50;61.80;;;;;;5047063;28;20812;-71
2023/04/29 10:42:41;;;;;;;4.40;1.83;;;14.50;62.60;;;;;;5036321;28;20292;-71
2023/04/29 10:45:27;;;;;;;4.83;1.97;;;14.40;60.30;;;;;;5050730;28;20337;-72
2023/04/29 10:48:02;;;;;;;9.33;3.10;;;14.40;61.40;;;;;;5038128;28;20294;-72
2023/04/29 10:50:28;;;;;;;4.57;2.10;;;14.40;63.00;;;;;;5028292;28;20363;-72
2023/04/29 10:52:54;;;;;;;5.77;2.30;;;14.40;64.20;;;;;;5048929;28;20041;-72
2023/04/29 10:55:21;;;;;;;6.73;2.00;;;14.30;59.80;;;;;;5049766;28;20805;-72
2023/04/29 10:57:47;;;;;;;6.20;2.00;;;14.20;59.50;;;;;;5027523;28;20287;-73
2023/04/29 11:00:22;;;;;;;5.50;2.63;;;14.10;57.10;;;;;;5031450;28;20280;-72
2023/04/29 11:02:47;;;;;;;4.30;2.10;;;14.00;61.60;;;;;;5033820;28;20393;-72
2023/04/29 11:05:14;;;;;;;7.93;2.30;;;14.10;64.10;;;;;;5025869;28;20056;-73
2023/04/29 11:07:40;;;;;;;3.80;2.07;;;14.10;60.90;;;;;;5050457;28;20126;-72
2023/04/29 11:10:06;;;;;;;4.70;2.00;;;14.20;57.20;;;;;;5032305;28;20423;-71
2023/04/29 11:12:32;;;;;;;4.60;2.00;;;14.10;55.00;;;;;;5044685;28;20295;-72
2023/04/29 11:15:04;;;;;;;3.07;1.53;;;14.00;56.40;;;;;;5035936;28;20286;-72
2023/04/29 11:17:37;;;;;;;4.33;1.90;;;14.00;56.90;;;;;;5028856;28;20033;-72
2023/04/29 11:20:03;;;;;;;4.27;2.23;;;14.10;58.70;;;;;;5049625;28;20283;-72
2023/04/29 11:22:30;;;;;;;4.27;1.67;;;14.30;60.90;;;;;;5027840;28;20280;-71
2023/04/29 11:25:00;;;;;;;4.77;2.50;;;14.40;59.20;;;;;;5049604;28;20315;-74
2023/04/29 11:27:37;;;;;;;3.93;2.17;;;14.40;55.60;;;;;;5029156;28;20306;-72
2023/04/29 11:30:05;;;;;;;8.13;2.80;;;14.40;56.50;;;;;;5044589;28;20522;-72
2023/04/29 11:32:35;;;;;;;5.10;2.60;;;14.30;59.50;;;;;;5022311;28;20674;-72
2023/04/29 11:35:15;;;;;;;8.37;2.73;;;14.40;59.90;;;;;;5026175;28;20783;-72
2023/04/29 11:37:42;;;;;;;6.20;2.30;;;14.50;60.80;;;;;;5025818;28;20609;-72
2023/04/29 11:40:10;;;;;;;6.37;2.40;;;14.70;63.30;;;;;;5051469;28;20287;-72
2023/04/29 11:42:41;;;;;;;4.80;1.90;;;14.80;63.70;;;;;;5049172;28;20314;-72
2023/04/29 11:45:07;;;;;;;4.20;2.10;;;14.80;60.80;;;;;;5033846;28;20294;-72
2023/04/29 11:47:33;;;;;;;6.47;2.20;;;14.60;61.90;;;;;;5051625;28;20279;-72
2023/04/29 11:50:07;;;;;;;4.37;1.90;;;14.60;63.50;;;;;;5052241;28;20885;-72
2023/04/29 11:52:35;;;;;;;4.93;1.60;;;14.70;63.90;;;;;;5026895;28;20025;-72
2023/04/29 11:55:02;;;;;;;5.13;2.20;;;14.90;64.20;;;;;;5029655;28;20288;-72
2023/04/29 11:57:28;;;;;;;5.00;2.20;;;15.00;65.50;;;;;;5051726;28;20279;-72
2023/04/29 11:59:54;;;;;;;5.83;2.03;;;15.00;66.10;;;;;;5052110;28;20824;-72
2023/04/29 12:02:30;;;;;;;3.87;2.10;;;15.00;67.70;;;;;;5027042;28;20046;-72
2023/04/29 12:04:57;;;;;;;5.53;1.97;;;14.80;63.30;;;;;;5031987;28;20299;-72
2023/04/29 12:07:23;;;;;;;3.63;1.70;;;14.80;66.30;;;;;;5031774;28;20288;-73
2023/04/29 12:09:49;;;;;;;6.23;2.20;;;14.80;63.10;;;;;;5034192;28;20287;-72
2023/04/29 12:12:15;;;;;;;8.93;2.00;;;14.90;65.40;;;;;;5032733;28;20287;-72
2023/04/29 12:14:42;;;;;;;7.13;2.17;;;14.90;66.60;;;;;;5028040;28;20118;-72
2023/04/29 12:17:09;;;;;;;6.43;1.93;;;14.90;64.80;;;;;;5032990;28;20276;-73
2023/04/29 12:19:37;;;;;;;6.27;1.87;;;15.00;66.70;;;;;;5034084;28;20279;-72
2023/04/29 12:22:03;;;;;;;5.27;1.87;;;15.20;65.60;;;;;;5048754;28;20495;-73
2023/04/29 12:24:35;;;;;;;3.80;2.07;;;15.20;64.60;;;;;;5039865;28;20299;-73
2023/04/29 12:27:02;;;;;;;7.10;2.27;;;15.20;64.00;;;;;;5022587;28;20288;-72
2023/04/29 12:29:28;;;;;;;4.60;1.67;;;15.20;64.90;;;;;;5026906;28;20321;-73
2023/04/29 12:31:55;;;;;;;11.27;2.07;;;15.20;64.90;;;;;;5044933;28;20296;-73
2023/04/29 12:34:25;;;;;;;2.90;1.40;;;15.30;61.70;;;;;;5029752;28;20123;-72
2023/04/29 12:36:54;;;;;;;5.00;2.03;;;15.30;60.60;;;;;;5027959;28;20276;-73
2023/04/29 12:39:20;;;;;;;7.80;1.63;;;15.30;61.20;;;;;;5043698;28;20314;-72
2023/04/29 12:41:46;;;;;;;3.47;1.60;;;15.40;62.90;;;;;;5051061;28;20292;-73
2023/04/29 12:44:11;;;;;;;3.17;1.50;;;15.40;61.50;;;;;;5030973;28;20125;-72